createdAt,value
2018-02-24T00:02:15.523Z,34.27
2018-02-24T00:04:45.169Z,33.37
2018-02-24T00:07:15.003Z,35.37
2018-02-24T00:09:44.694Z,34.23
2018-02-24T00:12:14.651Z,33.93
2018-02-24T00:14:44.148Z,34.17
2018-02-24T00:17:13.628Z,35.77
2018-02-24T00:19:43.056Z,33.03
2018-02-24T00:22:12.770Z,35.07
2018-02-24T00:24:42.411Z,34.63
2018-02-24T00:27:12.200Z,36.87
2018-02-24T00:29:42.415Z,36.03
2018-02-24T00:32:11.816Z,35.27
2018-02-24T00:34:41.439Z,36.10
2018-02-24T00:37:10.886Z,36.60
2018-02-24T00:39:40.365Z,34.17
2018-02-24T00:42:10.046Z,35.27
2018-02-24T00:44:39.436Z,34.27
2018-02-24T00:47:09.063Z,32.80
2018-02-24T00:49:39.168Z,35.13
2018-02-24T00:52:08.663Z,34.70
2018-02-24T00:54:38.140Z,34.67
2018-02-24T00:57:07.688Z,34.37
2018-02-24T00:59:37.856Z,33.50
2018-02-24T01:02:07.310Z,34.33
2018-02-24T01:04:36.819Z,34.77
2018-02-24T01:07:07.029Z,32.47
2018-02-24T01:09:36.548Z,34.53
2018-02-24T01:12:05.970Z,33.13
2018-02-24T01:14:35.452Z,33.30
2018-02-24T01:17:05.009Z,32.77
2018-02-24T01:19:34.897Z,32.17
2018-02-24T01:22:04.393Z,33.50
2018-02-24T01:24:33.890Z,32.60
2018-02-24T01:27:03.417Z,33.27
2018-02-24T01:29:34.083Z,31.90
2018-02-24T01:32:04.435Z,35.07
2018-02-24T01:34:33.850Z,31.70
2018-02-24T01:39:39.265Z,32.17
2018-02-24T01:42:08.588Z,32.57
2018-02-24T01:44:38.758Z,33.53
2018-02-24T01:47:08.088Z,32.80
2018-02-24T01:49:37.596Z,34.20
2018-02-24T01:52:06.977Z,32.63
2018-02-24T01:54:36.557Z,32.40
2018-02-24T01:57:05.871Z,31.70
2018-02-24T01:59:35.270Z,31.73
2018-02-24T02:02:05.509Z,31.63
2018-02-24T02:04:34.865Z,31.63
2018-02-24T02:07:04.527Z,30.77
2018-02-24T02:09:34.012Z,31.73
2018-02-24T02:12:03.432Z,27.73
2018-02-24T02:14:33.136Z,28.93
2018-02-24T02:17:02.965Z,30.60
2018-02-24T02:19:32.497Z,31.10
2018-02-24T02:22:01.834Z,31.53
2018-02-24T02:24:31.204Z,29.17
2018-02-24T02:27:00.576Z,33.70
2018-02-24T02:29:29.893Z,33.83
2018-02-24T02:31:59.298Z,33.23
2018-02-24T02:34:28.720Z,34.93
2018-02-24T02:36:58.046Z,35.17
2018-02-24T02:39:27.621Z,33.57
2018-02-24T02:41:57.661Z,34.37
2018-02-24T02:44:27.163Z,37.00
2018-02-24T02:46:56.541Z,34.07
2018-02-24T02:49:26.180Z,36.50
2018-02-24T02:51:56.344Z,34.53
2018-02-24T02:54:25.736Z,33.53
2018-02-24T02:56:55.125Z,35.17
2018-02-24T02:59:25.536Z,36.30
2018-02-24T03:01:54.913Z,34.00
2018-02-24T03:04:24.255Z,35.53
2018-02-24T03:06:54.418Z,35.50
2018-02-24T03:09:24.009Z,37.07
2018-02-24T03:11:53.619Z,40.27
2018-02-24T03:14:23.197Z,41.77
2018-02-24T03:16:53.381Z,40.57
2018-02-24T03:19:22.754Z,40.83
2018-02-24T03:21:53.291Z,43.93
2018-02-24T03:24:22.737Z,41.97
2018-02-24T03:26:52.818Z,44.03
2018-02-24T03:29:22.502Z,43.37
2018-02-24T03:31:52.141Z,42.63
2018-02-24T03:34:21.562Z,43.20
2018-02-24T03:36:51.305Z,43.60
2018-02-24T03:39:20.747Z,41.33
2018-02-24T03:41:50.965Z,39.73
2018-02-24T03:44:20.383Z,41.93
2018-02-24T03:46:49.852Z,42.77
2018-02-24T03:49:19.217Z,42.60
2018-02-24T03:51:49.305Z,42.97
2018-02-24T03:54:18.885Z,43.20
2018-02-24T03:56:48.402Z,44.53
2018-02-24T03:59:17.704Z,42.30
2018-02-24T04:01:47.730Z,42.20
2018-02-24T04:04:17.716Z,42.87
2018-02-24T04:06:48.017Z,43.30
2018-02-24T04:09:17.548Z,40.53
2018-02-24T04:11:46.979Z,42.30
2018-02-24T04:14:16.374Z,42.23
2018-02-24T04:16:45.821Z,43.87
2018-02-24T04:19:15.215Z,42.73
2018-02-24T04:21:45.327Z,43.83
2018-02-24T04:24:14.802Z,42.57
2018-02-24T04:26:44.251Z,42.27
2018-02-24T04:29:13.633Z,41.33
2018-02-24T04:31:43.012Z,39.37
2018-02-24T04:34:13.380Z,40.90
2018-02-24T04:36:43.597Z,40.97
2018-02-24T04:39:12.964Z,41.60
2018-02-24T04:41:42.580Z,43.47
2018-02-24T04:44:12.171Z,40.27
2018-02-24T04:46:41.805Z,39.47
2018-02-24T04:49:11.273Z,40.33
2018-02-24T04:51:42.521Z,39.73
2018-02-24T04:54:11.965Z,43.17
2018-02-24T04:56:42.652Z,42.20
2018-02-24T04:59:16.358Z,40.70
2018-02-24T05:01:46.662Z,40.47
2018-02-24T05:04:20.285Z,42.73
2018-02-24T05:06:50.744Z,40.27
2018-02-24T05:09:22.169Z,40.87
2018-02-24T05:11:54.543Z,41.80
2018-02-24T05:14:30.098Z,41.47
2018-02-24T05:17:04.230Z,40.80
2018-02-24T05:19:35.830Z,41.60
2018-02-24T05:22:12.398Z,41.90
2018-02-24T05:24:41.838Z,42.73
2018-02-24T05:27:16.546Z,39.90
2018-02-24T05:29:48.931Z,41.53
2018-02-24T05:35:06.579Z,39.47
2018-02-24T05:37:37.497Z,42.20
2018-02-24T05:40:09.271Z,41.70
2018-02-24T05:42:42.729Z,41.63
2018-02-24T05:45:13.476Z,41.67
2018-02-24T05:47:42.967Z,41.03
2018-02-24T05:50:12.522Z,40.77
2018-02-24T05:52:42.151Z,40.93
2018-02-24T05:55:12.145Z,40.33
2018-02-24T05:57:41.550Z,40.13
2018-02-24T06:00:11.021Z,39.87
2018-02-24T06:02:46.051Z,41.17
2018-02-24T06:05:15.612Z,40.63
2018-02-24T06:07:45.127Z,40.97
2018-02-24T06:10:15.468Z,42.43
2018-02-24T06:12:46.528Z,42.40
2018-02-24T06:15:17.276Z,40.87
2018-02-24T06:17:49.685Z,41.50
2018-02-24T06:20:19.677Z,41.53
2018-02-24T06:22:50.262Z,41.30
2018-02-24T06:25:20.977Z,40.53
2018-02-24T06:27:54.762Z,41.73
2018-02-24T06:33:02.833Z,42.57
2018-02-24T06:35:32.839Z,43.50
2018-02-24T06:38:03.717Z,42.47
2018-02-24T06:40:34.859Z,44.57
2018-02-24T06:43:06.807Z,43.10
2018-02-24T06:45:37.602Z,41.10
2018-02-24T06:48:10.038Z,40.90
2018-02-24T06:50:40.806Z,39.90
2018-02-24T08:27:14.149Z,41.57
2018-02-24T10:38:47.342Z,44.17
2018-02-24T10:41:16.786Z,45.43
2018-02-24T10:43:46.189Z,40.90
2018-02-24T10:46:15.893Z,43.47
2018-02-24T10:48:46.178Z,41.93
2018-02-24T10:58:44.905Z,43.40
2018-02-24T11:01:14.348Z,43.87
2018-02-24T11:03:44.528Z,42.77
2018-02-24T11:06:13.953Z,45.73
2018-02-24T11:08:43.478Z,44.60
2018-02-24T11:39:12.690Z,41.57
2018-02-24T11:41:42.255Z,43.83
2018-02-24T11:44:15.027Z,45.37
2018-02-24T11:47:16.205Z,43.43
2018-02-24T11:49:52.415Z,42.77
2018-02-24T11:52:23.081Z,44.33
2018-02-24T11:59:11.138Z,41.20
2018-02-24T12:01:40.460Z,36.83
2018-02-24T12:04:10.081Z,38.80
2018-02-24T12:06:39.367Z,40.83
2018-02-24T12:09:08.768Z,39.00
2018-02-24T12:11:38.347Z,38.97
2018-02-24T12:14:09.754Z,40.13
2018-02-24T12:16:46.862Z,40.43
2018-02-24T12:19:17.351Z,38.93
2018-02-24T12:21:49.982Z,42.50
2018-02-24T12:24:19.777Z,40.03
2018-02-24T12:26:56.670Z,39.90
2018-02-24T12:29:27.515Z,39.67
2018-02-24T12:31:56.814Z,39.33
2018-02-24T12:34:33.916Z,40.37
2018-02-24T12:37:03.343Z,41.17
2018-02-24T12:39:34.574Z,40.40
2018-02-24T12:42:03.981Z,37.93
2018-02-24T12:44:33.528Z,38.43
2018-02-24T12:47:03.105Z,37.23
2018-02-24T12:49:34.084Z,37.33
2018-02-24T12:52:03.773Z,35.90
2018-02-24T12:54:33.540Z,34.93
2018-02-24T13:17:11.337Z,34.20
2018-02-24T13:19:49.507Z,35.10
2018-02-24T13:22:18.901Z,36.17
2018-02-24T13:24:48.327Z,37.57
2018-02-24T13:27:17.954Z,37.27
2018-02-24T13:54:30.619Z,36.17
2018-02-24T13:57:01.603Z,35.90
2018-02-24T13:59:31.291Z,38.70
2018-02-24T14:02:02.101Z,37.40
2018-02-24T14:04:32.338Z,36.87
2018-02-24T14:17:15.400Z,34.40
2018-02-24T14:19:47.592Z,35.33
2018-02-24T14:22:17.112Z,35.80
2018-02-24T14:24:46.560Z,34.67
2018-02-24T14:27:15.968Z,33.83
2018-02-24T14:29:45.480Z,33.47
2018-02-24T14:32:15.787Z,33.83
2018-02-24T14:34:45.197Z,34.80
2018-02-24T14:37:14.733Z,36.10
2018-02-24T14:39:44.508Z,34.30
2018-02-24T14:42:14.143Z,35.00
2018-02-24T14:44:43.548Z,33.00
2018-02-24T14:47:13.446Z,33.10
2018-02-24T16:14:32.184Z,24.97
2018-02-24T16:17:02.436Z,23.43
2018-02-24T16:19:32.221Z,24.47
2018-02-24T16:22:39.110Z,24.13
